Time;durP1;ratioP1;P1;durP2;ratioP2;P2;SDS_P1;SDS_P2;PMS_P1;PMS_P2;Temp;Humidity;BMP_temperature;BMP_pressure;BME280_temperature;BME280_humidity;BME280_pressure;Samples;Min_cycle;Max_cycle;Signal;HPM_P1;HPM_P2
2022/04/21 00:01:36;;;;;;;10.57;6.72;;;5.80;99.90;;;;;;4995631;28;20112;-85
2022/04/21 00:04:02;;;;;;;9.35;6.32;;;5.80;99.90;;;;;;4994397;28;20661;-84
2022/04/21 00:06:28;;;;;;;10.38;6.93;;;5.80;99.90;;;;;;4993351;28;20499;-83
2022/04/21 00:08:54;;;;;;;10.05;6.88;;;5.70;99.90;;;;;;4994492;28;20377;-85
2022/04/21 00:11:21;;;;;;;12.07;7.05;;;5.70;99.90;;;;;;5017326;28;20083;-83
2022/04/21 00:13:47;;;;;;;11.70;7.43;;;5.60;99.90;;;;;;4989878;28;20042;-83
2022/04/21 00:16:12;;;;;;;10.80;6.68;;;5.70;99.90;;;;;;4999417;28;20049;-84
2022/04/21 00:18:39;;;;;;;9.68;6.45;;;5.60;99.90;;;;;;5011706;28;20057;-84
2022/04/21 00:21:05;;;;;;;12.90;7.38;;;5.60;99.90;;;;;;4994507;28;20104;-83
2022/04/21 00:23:32;;;;;;;10.90;6.93;;;5.60;99.90;;;;;;5011170;28;20122;-84
2022/04/21 00:26:00;;;;;;;11.63;7.38;;;5.60;99.90;;;;;;5009335;28;20038;-84
2022/04/21 00:28:31;;;;;;;13.02;7.68;;;5.70;99.90;;;;;;4997937;28;20041;-84
2022/04/21 00:30:57;;;;;;;14.07;7.20;;;5.60;99.90;;;;;;4998515;28;20495;-84
2022/04/21 00:33:23;;;;;;;11.15;6.95;;;5.60;99.90;;;;;;5011086;28;20077;-84
2022/04/21 00:35:49;;;;;;;14.32;7.68;;;5.60;99.90;;;;;;5013334;28;20587;-84
2022/04/21 00:38:15;;;;;;;12.38;8.07;;;5.60;99.90;;;;;;4997654;28;20215;-84
2022/04/21 00:40:40;;;;;;;13.48;7.88;;;5.60;99.90;;;;;;4996370;28;20549;-83
2022/04/21 00:43:06;;;;;;;15.77;8.05;;;5.60;99.90;;;;;;4974089;28;20045;-84
2022/04/21 00:45:33;;;;;;;11.88;7.68;;;5.70;99.90;;;;;;4986827;28;20108;-83
2022/04/21 00:48:02;;;;;;;13.52;8.25;;;5.60;99.90;;;;;;4997828;28;20494;-85
2022/04/21 00:50:33;;;;;;;14.55;8.02;;;5.50;99.90;;;;;;4998276;28;20420;-84
2022/04/21 00:53:00;;;;;;;13.20;7.22;;;5.50;99.90;;;;;;5002043;28;20061;-85
2022/04/21 00:55:27;;;;;;;12.43;7.60;;;5.50;99.90;;;;;;5008783;28;20045;-83
2022/04/21 00:57:54;;;;;;;11.15;7.55;;;5.50;99.90;;;;;;5008094;28;20069;-84
2022/04/21 01:00:20;;;;;;;11.40;7.57;;;5.50;99.90;;;;;;4972714;28;20045;-84
2022/04/21 01:02:46;;;;;;;13.43;8.38;;;5.40;99.90;;;;;;5009147;28;21764;-84
2022/04/21 01:05:32;;;;;;;11.85;7.85;;;5.40;99.90;;;;;;5007343;28;20046;-84
2022/04/21 01:08:16;;;;;;;12.98;8.32;;;5.30;99.90;;;;;;4986675;28;20063;-86
2022/04/21 01:10:42;;;;;;;14.23;9.30;;;5.30;99.90;;;;;;4994239;28;20049;-83
2022/04/21 01:13:10;;;;;;;13.02;8.25;;;5.30;99.90;;;;;;5005512;28;20131;-84
2022/04/21 01:15:37;;;;;;;13.05;8.73;;;5.20;99.90;;;;;;4993293;28;20506;-84
2022/04/21 01:18:04;;;;;;;16.75;8.48;;;5.20;99.90;;;;;;4993576;28;20591;-84
2022/04/21 01:20:30;;;;;;;14.23;8.52;;;5.20;99.90;;;;;;5020788;28;20053;-85
2022/04/21 01:22:56;;;;;;;13.85;8.82;;;5.20;99.90;;;;;;5009010;28;20077;-83
2022/04/21 01:25:22;;;;;;;13.90;9.30;;;5.20;99.90;;;;;;5006347;28;20048;-83
2022/04/21 01:27:51;;;;;;;13.77;9.65;;;5.10;99.90;;;;;;4976617;28;20049;-83
2022/04/21 01:30:17;;;;;;;13.35;8.68;;;5.10;99.90;;;;;;5009325;28;20041;-83
2022/04/21 01:32:44;;;;;;;14.98;9.75;;;5.00;99.90;;;;;;5007567;28;20168;-84
2022/04/21 01:35:11;;;;;;;15.80;8.38;;;5.00;99.90;;;;;;4983388;28;20042;-84
2022/04/21 01:43:06;;;;;;;16.02;9.27;;;5.00;99.90;;;;;;4994751;28;20046;-83
2022/04/21 01:45:33;;;;;;;14.00;9.00;;;5.10;99.90;;;;;;4996242;28;20037;-83
2022/04/21 01:47:59;;;;;;;15.30;8.90;;;5.20;99.90;;;;;;4976916;28;20057;-84
2022/04/21 01:50:25;;;;;;;16.48;9.43;;;5.20;99.90;;;;;;4992680;28;20468;-84
2022/04/21 01:52:51;;;;;;;17.15;10.32;;;5.20;99.90;;;;;;4999696;28;20209;-84
2022/04/21 01:55:17;;;;;;;13.50;8.98;;;5.30;99.90;;;;;;4964801;28;20052;-83
2022/04/21 01:57:43;;;;;;;17.98;9.68;;;5.30;99.90;;;;;;4986648;28;20062;-84
2022/04/21 02:00:09;;;;;;;14.98;9.50;;;5.30;99.90;;;;;;4986567;28;20050;-82
2022/04/21 02:02:35;;;;;;;15.07;9.90;;;5.30;99.90;;;;;;5024711;28;20049;-82
2022/04/21 02:05:01;;;;;;;17.17;10.25;;;5.30;99.90;;;;;;5018405;28;20043;-85
2022/04/21 02:07:28;;;;;;;17.33;10.18;;;5.20;99.90;;;;;;5015146;28;20054;-83
2022/04/21 02:09:55;;;;;;;16.20;10.30;;;5.20;99.90;;;;;;5004314;28;20483;-82
2022/04/21 02:12:22;;;;;;;20.85;10.82;;;5.20;99.90;;;;;;5006100;28;20423;-83
2022/04/21 02:14:48;;;;;;;18.15;10.98;;;5.10;99.90;;;;;;5021525;28;20050;-83
2022/04/21 02:17:14;;;;;;;19.15;11.02;;;5.10;99.90;;;;;;4991413;28;20050;-84
2022/04/21 02:19:40;;;;;;;16.80;9.80;;;4.90;99.90;;;;;;4976550;28;20058;-84
2022/04/21 02:22:06;;;;;;;19.27;10.68;;;4.80;99.90;;;;;;4984834;28;20041;-84
2022/04/21 02:24:31;;;;;;;17.98;10.95;;;4.70;99.90;;;;;;5007664;28;20463;-84
2022/04/21 02:26:57;;;;;;;20.35;10.60;;;4.70;99.90;;;;;;5009261;28;20049;-84
2022/04/21 02:29:23;;;;;;;15.52;10.45;;;4.60;99.90;;;;;;4991612;28;20125;-86
2022/04/21 02:31:49;;;;;;;17.13;10.90;;;4.60;99.90;;;;;;4999988;28;20144;-82
2022/04/21 02:34:15;;;;;;;17.25;11.18;;;4.60;99.90;;;;;;5027897;28;20056;-84
2022/04/21 02:36:41;;;;;;;21.52;11.40;;;4.50;99.90;;;;;;5005861;28;20046;-82
2022/04/21 02:39:06;;;;;;;18.00;10.90;;;4.60;99.90;;;;;;4968272;28;20077;-83
2022/04/21 02:41:32;;;;;;;18.05;11.02;;;4.60;99.90;;;;;;4991812;28;20050;-84
2022/04/21 02:43:59;;;;;;;18.35;11.65;;;4.70;99.90;;;;;;4992376;28;20042;-82
2022/04/21 02:46:28;;;;;;;18.00;10.85;;;4.60;99.90;;;;;;4982476;28;20169;-82
2022/04/21 02:48:55;;;;;;;16.80;10.65;;;4.70;99.90;;;;;;4988979;28;20189;-82
2022/04/21 02:51:21;;;;;;;19.48;11.40;;;4.80;99.90;;;;;;5009195;28;20050;-83
2022/04/21 02:59:15;;;;;;;16.63;11.10;;;4.90;99.90;;;;;;5003082;28;20053;-83
2022/04/21 03:01:41;;;;;;;20.80;11.15;;;4.90;99.90;;;;;;5000298;28;20444;-84
2022/04/21 03:04:06;;;;;;;17.65;10.73;;;4.90;99.90;;;;;;4998675;28;20495;-85
2022/04/21 03:06:32;;;;;;;18.70;11.00;;;4.90;99.90;;;;;;4980239;28;20052;-83
2022/04/21 03:08:58;;;;;;;17.45;11.77;;;4.90;99.90;;;;;;4996594;28;20400;-83
2022/04/21 03:11:23;;;;;;;18.27;11.20;;;4.90;99.90;;;;;;4964116;28;20072;-84
2022/04/21 03:13:49;;;;;;;16.30;10.85;;;4.90;99.90;;;;;;5014488;28;20046;-83
2022/04/21 03:16:15;;;;;;;19.35;11.18;;;4.90;99.90;;;;;;4995498;28;20033;-84
2022/04/21 03:18:40;;;;;;;18.38;11.65;;;4.80;99.90;;;;;;4980107;28;20053;-83
2022/04/21 03:26:34;;;;;;;16.95;11.27;;;4.90;99.90;;;;;;5006422;28;20108;-83
2022/04/21 03:29:00;;;;;;;19.63;11.07;;;4.80;99.90;;;;;;5011398;28;20395;-83
2022/04/21 03:31:25;;;;;;;18.45;12.13;;;4.80;99.90;;;;;;4978904;28;20116;-84
2022/04/21 03:33:51;;;;;;;17.67;11.85;;;4.80;99.90;;;;;;5014575;28;20550;-84
2022/04/21 03:36:17;;;;;;;16.92;10.98;;;4.90;99.90;;;;;;4971646;28;20043;-83
2022/04/21 03:38:43;;;;;;;19.17;11.98;;;4.80;99.90;;;;;;4996445;28;20045;-86
2022/04/21 03:41:08;;;;;;;16.77;10.80;;;4.80;99.90;;;;;;5031956;28;20046;-84
2022/04/21 03:43:35;;;;;;;19.10;11.70;;;4.70;99.90;;;;;;5001886;28;20057;-84
2022/04/21 03:46:00;;;;;;;16.60;11.77;;;4.60;99.90;;;;;;4975342;28;20050;-83
2022/04/21 03:48:26;;;;;;;17.45;11.73;;;4.60;99.90;;;;;;4995097;28;20061;-84
2022/04/21 03:50:52;;;;;;;18.42;11.93;;;4.50;99.90;;;;;;4996324;28;20041;-84
2022/04/21 03:53:17;;;;;;;17.95;12.13;;;4.50;99.90;;;;;;4999164;28;20113;-83
2022/04/21 03:55:43;;;;;;;17.10;11.93;;;4.40;99.90;;;;;;4987677;28;20077;-84
2022/04/21 03:58:08;;;;;;;18.08;11.38;;;4.40;99.90;;;;;;4995042;28;20038;-85
2022/04/21 04:00:34;;;;;;;19.15;12.50;;;4.30;99.90;;;;;;5011883;28;20062;-84
2022/04/21 04:03:00;;;;;;;20.27;11.55;;;4.30;99.90;;;;;;4995857;28;20042;-82
2022/04/21 04:05:26;;;;;;;20.92;12.20;;;4.30;99.90;;;;;;4991713;28;20066;-83
2022/04/21 04:10:52;;;;;;;19.70;13.02;;;4.40;99.90;;;;;;4980773;28;20093;-84
2022/04/21 04:13:18;;;;;;;19.90;12.27;;;4.40;99.90;;;;;;5014061;28;20053;-84
2022/04/21 04:15:48;;;;;;;21.40;12.18;;;4.40;99.90;;;;;;5005164;28;20053;-84
2022/04/21 04:18:15;;;;;;;23.30;11.30;;;4.40;99.90;;;;;;4993287;28;20496;-85
2022/04/21 04:20:41;;;;;;;19.67;11.07;;;4.40;99.90;;;;;;5005046;28;20056;-86
2022/04/21 04:23:06;;;;;;;20.20;11.88;;;4.40;99.90;;;;;;4978589;28;20045;-84
2022/04/21 04:25:32;;;;;;;24.08;12.55;;;4.40;99.90;;;;;;4986353;28;20046;-85
2022/04/21 04:27:58;;;;;;;17.90;12.02;;;4.50;99.90;;;;;;4955752;28;20132;-84
2022/04/21 04:30:24;;;;;;;20.58;12.57;;;4.40;99.90;;;;;;4980271;28;20050;-86
2022/04/21 04:32:49;;;;;;;19.98;11.85;;;4.50;99.90;;;;;;4992654;28;20050;-83
2022/04/21 04:35:15;;;;;;;20.73;12.57;;;4.40;99.90;;;;;;4977781;28;20034;-86
2022/04/21 04:37:41;;;;;;;19.10;12.05;;;4.40;99.90;;;;;;5003297;28;20049;-85
2022/04/21 04:40:07;;;;;;;21.90;12.68;;;4.50;99.90;;;;;;4994034;28;20121;-84
2022/04/21 04:42:33;;;;;;;21.02;12.45;;;4.40;99.90;;;;;;5007817;28;20279;-84
2022/04/21 04:47:43;;;;;;;18.75;12.15;;;4.40;99.90;;;;;;4990693;28;20064;-85
2022/04/21 04:50:09;;;;;;;18.92;12.07;;;4.50;99.90;;;;;;4992463;28;20076;-85
2022/04/21 04:52:35;;;;;;;21.33;12.38;;;4.40;99.90;;;;;;4976973;28;20797;-85
2022/04/21 04:55:01;;;;;;;18.42;12.68;;;4.40;99.90;;;;;;4993094;28;20038;-85
2022/04/21 04:57:26;;;;;;;17.70;11.93;;;4.40;99.90;;;;;;4990697;28;20042;-85
2022/04/21 04:59:52;;;;;;;19.63;11.95;;;4.40;99.90;;;;;;4968264;28;20046;-84
2022/04/21 05:02:20;;;;;;;16.95;11.95;;;4.30;99.90;;;;;;5009170;28;20045;-88
2022/04/21 05:04:47;;;;;;;18.83;11.95;;;4.40;99.90;;;;;;4970979;28;20054;-85
2022/04/21 05:07:13;;;;;;;19.67;12.52;;;4.40;99.90;;;;;;4991363;28;20034;-88
2022/04/21 05:09:40;;;;;;;20.38;12.35;;;4.50;99.90;;;;;;5005230;28;20119;-87
2022/04/21 05:12:16;;;;;;;;;;;;;;;;;;;;;
2022/04/21 05:14:44;;;;;;;18.05;11.32;;;4.50;99.90;;;;;;5002480;28;20056;-84
2022/04/21 05:17:10;;;;;;;20.13;11.35;;;4.50;99.90;;;;;;5014578;28;20037;-83
2022/04/21 05:19:36;;;;;;;18.38;11.57;;;4.60;99.90;;;;;;5003457;28;20049;-84
2022/04/21 05:22:04;;;;;;;21.13;11.88;;;4.70;99.90;;;;;;4976458;28;20668;-84
2022/04/21 05:24:33;;;;;;;17.83;11.18;;;4.90;99.90;;;;;;4971668;28;20050;-84
2022/04/21 05:27:00;;;;;;;15.95;9.98;;;5.00;99.90;;;;;;4976095;28;20053;-84
2022/04/21 05:32:11;;;;;;;16.92;10.90;;;5.40;99.90;;;;;;5020530;28;20942;-83
2022/04/21 05:34:37;;;;;;;16.15;10.07;;;5.50;99.90;;;;;;5002018;28;20042;-84
2022/04/21 05:37:04;;;;;;;13.57;9.55;;;5.70;99.90;;;;;;4990846;28;20109;-83
2022/04/21 05:39:30;;;;;;;17.05;10.25;;;5.80;99.90;;;;;;4985263;28;20041;-83
2022/04/21 05:41:57;;;;;;;14.77;8.68;;;6.00;99.90;;;;;;5004531;28;20073;-84
2022/04/21 05:44:24;;;;;;;19.42;9.82;;;6.20;99.90;;;;;;5006394;28;20488;-85
2022/04/21 05:46:50;;;;;;;13.45;9.82;;;6.40;99.90;;;;;;5011739;28;20124;-83
2022/04/21 05:49:17;;;;;;;13.45;9.57;;;6.60;99.90;;;;;;4973546;28;20082;-85
2022/04/21 05:51:44;;;;;;;11.98;8.75;;;6.80;99.90;;;;;;4989599;28;20567;-85
2022/04/21 05:54:10;;;;;;;16.30;8.98;;;7.00;99.90;;;;;;4959373;28;20038;-84
2022/04/21 05:56:36;;;;;;;11.38;8.25;;;7.20;99.90;;;;;;4973327;28;20342;-85
2022/04/21 05:59:03;;;;;;;12.77;8.82;;;7.40;99.90;;;;;;4958098;28;20475;-84
2022/04/21 06:01:30;;;;;;;11.25;8.75;;;7.70;99.90;;;;;;4973003;28;20046;-84
2022/04/21 06:03:56;;;;;;;13.05;7.93;;;7.80;99.90;;;;;;4974174;28;20042;-84
2022/04/21 06:06:21;;;;;;;10.10;7.90;;;8.00;99.90;;;;;;5008952;28;20116;-84
2022/04/21 06:08:47;;;;;;;11.95;9.02;;;8.20;99.90;;;;;;5009311;28;20096;-84
2022/04/21 06:11:13;;;;;;;11.13;7.53;;;8.40;99.90;;;;;;4976351;28;20065;-84
2022/04/21 06:13:42;;;;;;;11.23;7.65;;;8.60;99.90;;;;;;4959686;28;20121;-85
2022/04/21 06:16:09;;;;;;;8.70;6.72;;;8.80;99.90;;;;;;4992167;28;20149;-84
2022/04/21 06:18:36;;;;;;;11.90;7.18;;;9.10;99.90;;;;;;5008756;28;20096;-84
2022/04/21 06:21:03;;;;;;;8.63;6.97;;;9.20;99.90;;;;;;4976350;28;20075;-84
2022/04/21 06:23:30;;;;;;;8.73;6.63;;;9.40;99.90;;;;;;5008390;28;20042;-84
2022/04/21 06:25:59;;;;;;;10.35;6.47;;;9.60;99.90;;;;;;4975186;28;20532;-85
2022/04/21 06:28:29;;;;;;;10.68;6.18;;;9.70;99.90;;;;;;4977012;28;20069;-85
2022/04/21 06:30:55;;;;;;;8.85;6.20;;;9.90;99.90;;;;;;4999756;28;20057;-85
2022/04/21 06:33:21;;;;;;;9.68;6.15;;;9.90;99.90;;;;;;4998741;28;20049;-84
2022/04/21 06:35:47;;;;;;;9.38;5.82;;;10.00;99.90;;;;;;4998929;28;20049;-84
2022/04/21 06:38:13;;;;;;;7.50;5.63;;;10.10;99.90;;;;;;4999954;28;20154;-85
2022/04/21 06:40:39;;;;;;;7.32;6.00;;;10.10;99.90;;;;;;5015894;28;20107;-85
2022/04/21 06:48:36;;;;;;;6.72;4.70;;;10.20;99.90;;;;;;5011399;28;20057;-85
2022/04/21 06:51:02;;;;;;;6.07;4.65;;;10.20;99.90;;;;;;4999931;28;20136;-84
2022/04/21 06:53:29;;;;;;;8.93;4.80;;;10.30;99.90;;;;;;4998194;28;20576;-84
2022/04/21 06:55:55;;;;;;;7.22;5.22;;;10.30;99.90;;;;;;4996592;28;20068;-85
2022/04/21 06:58:21;;;;;;;6.35;4.50;;;10.30;99.90;;;;;;4979262;28;20057;-87
2022/04/21 07:00:47;;;;;;;6.68;4.65;;;10.30;99.90;;;;;;4979967;28;20046;-83
2022/04/21 07:03:13;;;;;;;6.78;4.13;;;10.30;99.90;;;;;;4963191;28;20499;-84
2022/04/21 07:05:39;;;;;;;6.38;4.38;;;10.30;99.90;;;;;;4995360;28;20076;-84
2022/04/21 07:08:06;;;;;;;7.90;4.32;;;10.30;99.90;;;;;;4999453;28;20164;-85
2022/04/21 07:10:33;;;;;;;4.55;3.70;;;10.30;99.90;;;;;;4982493;28;20045;-84
2022/04/21 07:12:59;;;;;;;4.45;3.85;;;10.40;99.90;;;;;;4983100;28;20229;-84
2022/04/21 07:15:25;;;;;;;5.97;3.80;;;10.40;99.90;;;;;;5012395;28;20631;-85
2022/04/21 07:17:52;;;;;;;5.93;3.60;;;10.30;99.90;;;;;;4999182;28;20128;-85
2022/04/21 07:20:18;;;;;;;5.00;3.85;;;10.40;99.90;;;;;;5015584;28;20100;-85
2022/04/21 07:22:43;;;;;;;6.18;3.78;;;10.40;99.90;;;;;;4998302;28;20053;-84
2022/04/21 07:25:09;;;;;;;6.32;3.72;;;10.50;99.90;;;;;;4981534;28;20045;-84
2022/04/21 07:27:37;;;;;;;5.68;3.78;;;10.50;99.90;;;;;;4998402;28;20049;-86
2022/04/21 07:30:04;;;;;;;6.22;3.67;;;10.50;99.90;;;;;;4999070;28;20084;-84
2022/04/21 07:32:30;;;;;;;7.68;3.65;;;10.50;99.90;;;;;;4997625;28;20065;-84
2022/04/21 07:34:55;;;;;;;4.70;3.40;;;10.60;99.90;;;;;;4997619;28;20076;-85
2022/04/21 07:37:21;;;;;;;8.00;3.17;;;10.60;99.90;;;;;;4982679;28;20052;-84
2022/04/21 07:39:47;;;;;;;9.13;3.63;;;10.60;99.90;;;;;;5014303;28;20050;-84
2022/04/21 07:42:13;;;;;;;5.90;3.70;;;10.60;99.90;;;;;;4997891;28;20132;-84
2022/04/21 07:44:39;;;;;;;6.80;3.78;;;10.70;99.90;;;;;;4980857;28;20042;-84
2022/04/21 07:47:06;;;;;;;8.52;3.83;;;10.70;99.90;;;;;;4998177;28;20112;-84
2022/04/21 07:49:45;;;;;;;4.35;3.25;;;10.80;99.90;;;;;;4982135;28;20049;-84
2022/04/21 07:55:25;;;;;;;6.28;4.13;;;10.90;99.90;;;;;;4999168;28;20558;-84
2022/04/21 07:57:56;;;;;;;4.88;3.80;;;11.00;99.90;;;;;;4995430;28;20089;-84
2022/04/21 08:00:22;;;;;;;6.00;3.60;;;11.00;99.90;;;;;;4995227;28;20409;-84
2022/04/21 08:02:49;;;;;;;5.05;3.58;;;11.10;99.90;;;;;;4994762;28;20080;-83
2022/04/21 08:05:17;;;;;;;5.80;3.10;;;11.20;99.90;;;;;;4983436;28;20535;-84
2022/04/21 08:07:44;;;;;;;5.10;2.78;;;11.30;99.90;;;;;;4962344;28;20054;-85
2022/04/21 08:10:11;;;;;;;6.55;2.65;;;11.50;99.90;;;;;;4978786;28;20561;-84
2022/04/21 08:12:42;;;;;;;6.50;3.10;;;11.50;99.90;;;;;;4994580;28;20060;-84
2022/04/21 08:15:09;;;;;;;6.78;2.72;;;11.60;99.30;;;;;;4992248;28;20441;-84
2022/04/21 08:17:36;;;;;;;3.78;2.72;;;11.70;97.40;;;;;;5013656;28;20521;-84
2022/04/21 08:20:07;;;;;;;3.58;2.72;;;11.80;96.70;;;;;;5014398;28;20447;-84
2022/04/21 08:22:33;;;;;;;6.60;2.80;;;11.80;97.20;;;;;;4997779;28;20061;-84
2022/04/21 08:33:11;;;;;;;5.25;2.97;;;12.20;92.30;;;;;;4996732;28;20065;-83
2022/04/21 08:35:36;;;;;;;5.93;3.00;;;12.30;92.00;;;;;;4977785;28;20377;-84
2022/04/21 08:38:03;;;;;;;7.53;3.40;;;12.40;92.20;;;;;;4994588;28;20046;-84
2022/04/21 08:40:30;;;;;;;5.97;3.10;;;12.50;90.70;;;;;;5010283;28;20403;-85
2022/04/21 08:42:59;;;;;;;4.72;2.90;;;12.60;90.00;;;;;;4994217;28;20151;-85
2022/04/21 08:45:26;;;;;;;5.20;3.30;;;12.70;85.70;;;;;;4994235;28;20388;-84
2022/04/21 08:47:58;;;;;;;5.22;3.10;;;12.80;85.50;;;;;;4994307;28;20104;-84
2022/04/21 08:50:24;;;;;;;9.50;3.80;;;12.90;85.60;;;;;;4994512;28;20143;-84
2022/04/21 08:52:49;;;;;;;7.95;3.28;;;13.00;83.40;;;;;;4976704;28;20081;-84
2022/04/21 08:55:16;;;;;;;8.15;3.40;;;13.20;82.60;;;;;;5010495;28;20042;-83
2022/04/21 08:57:42;;;;;;;6.43;3.45;;;13.30;82.50;;;;;;4993782;28;20519;-83
2022/04/21 09:00:08;;;;;;;5.13;3.40;;;13.50;81.60;;;;;;4994224;28;20120;-85
2022/04/21 09:02:44;;;;;;;5.85;3.03;;;13.80;80.30;;;;;;4977671;28;20207;-84
2022/04/21 09:05:10;;;;;;;5.03;3.28;;;14.00;77.90;;;;;;4994185;28;20132;-83
2022/04/21 09:08:02;;;;;;;6.00;3.38;;;14.20;77.30;;;;;;4993565;28;20050;-84
2022/04/21 09:10:32;;;;;;;5.53;3.10;;;14.90;76.20;;;;;;4990047;28;20105;-87
2022/04/21 09:13:00;;;;;;;5.68;3.40;;;15.80;68.70;;;;;;5010451;28;20141;-84
2022/04/21 09:15:28;;;;;;;4.57;2.63;;;16.70;66.10;;;;;;4993432;28;20136;-84
2022/04/21 09:17:56;;;;;;;4.05;2.83;;;17.30;61.00;;;;;;4994206;28;20049;-83
2022/04/21 09:20:33;;;;;;;3.83;3.00;;;17.90;58.50;;;;;;4993979;28;20076;-84
2022/04/21 09:23:00;;;;;;;7.35;3.00;;;18.70;57.30;;;;;;4993748;28;20100;-83
2022/04/21 09:25:31;;;;;;;6.75;2.85;;;19.30;53.50;;;;;;4993686;28;20395;-85
2022/04/21 09:27:57;;;;;;;5.22;2.75;;;19.80;51.80;;;;;;4993779;28;20096;-85
2022/04/21 09:30:24;;;;;;;7.38;3.03;;;20.30;51.10;;;;;;4977733;28;20050;-86
2022/04/21 09:32:53;;;;;;;4.43;2.85;;;20.40;48.60;;;;;;5009045;28;20526;-84
2022/04/21 09:35:20;;;;;;;2.92;2.53;;;20.60;48.10;;;;;;4993172;28;20050;-85
2022/04/21 09:37:57;;;;;;;3.95;2.63;;;21.00;46.90;;;;;;4992930;28;20058;-84
2022/04/21 09:40:27;;;;;;;4.38;2.60;;;21.10;44.70;;;;;;4993545;28;20053;-84
2022/04/21 09:42:59;;;;;;;5.32;2.53;;;21.20;44.20;;;;;;4976948;28;20045;-85
2022/04/21 09:48:29;;;;;;;5.90;2.60;;;21.20;42.20;;;;;;5009577;28;20046;-84
2022/04/21 09:51:11;;;;;;;3.05;2.47;;;21.30;43.40;;;;;;5009759;28;20052;-83
2022/04/21 09:53:57;;;;;;;4.20;2.83;;;21.70;40.90;;;;;;5009215;28;20085;-85
2022/04/21 09:56:34;;;;;;;4.80;2.50;;;22.00;41.50;;;;;;5009754;28;20063;-85
2022/04/21 09:59:05;;;;;;;4.25;2.33;;;22.30;39.60;;;;;;4993240;28;20472;-84
2022/04/21 10:01:33;;;;;;;4.95;2.72;;;22.40;40.60;;;;;;4992906;28;20451;-85
2022/04/21 10:03:59;;;;;;;3.80;2.33;;;22.80;40.50;;;;;;4993148;28;20053;-84
2022/04/21 10:06:26;;;;;;;3.15;2.55;;;23.10;39.60;;;;;;4977162;28;20061;-84
2022/04/21 10:08:52;;;;;;;3.65;2.50;;;23.20;38.60;;;;;;4992652;28;20108;-84
2022/04/21 10:11:24;;;;;;;2.85;2.25;;;23.10;37.30;;;;;;4977061;28;20058;-85
2022/04/21 10:13:54;;;;;;;4.43;2.33;;;23.10;36.90;;;;;;4992615;28;20127;-84
2022/04/21 10:16:26;;;;;;;3.58;2.50;;;23.30;36.80;;;;;;5009140;28;20760;-84
2022/04/21 10:18:54;;;;;;;4.95;2.22;;;23.70;37.00;;;;;;5008979;28;20056;-85
2022/04/21 10:21:48;;;;;;;3.55;2.40;;;23.90;36.70;;;;;;5009538;28;20046;-84
2022/04/21 10:24:21;;;;;;;3.08;2.40;;;24.20;34.20;;;;;;5009506;28;20049;-84
2022/04/21 10:26:46;;;;;;;4.82;2.38;;;24.50;34.90;;;;;;5008456;28;20558;-85
2022/04/21 10:29:17;;;;;;;4.50;2.47;;;24.50;33.80;;;;;;5009013;28;20138;-83
2022/04/21 10:31:51;;;;;;;3.63;2.20;;;24.50;34.00;;;;;;4976549;28;20062;-84
2022/04/21 10:34:36;;;;;;;5.38;2.58;;;24.60;33.20;;;;;;5009426;28;20092;-85
2022/04/21 10:37:14;;;;;;;6.13;2.53;;;24.70;32.50;;;;;;5009464;28;20088;-84
2022/04/21 10:40:01;;;;;;;4.95;2.13;;;24.90;33.00;;;;;;5008651;28;20406;-84
2022/04/21 10:42:26;;;;;;;;;;;25.10;32.40;;;;;;5009927;28;20050;-85
2022/04/21 10:44:53;;;;;;;3.70;2.50;;;24.90;30.70;;;;;;4976284;28;19926;-85
2022/04/21 10:47:31;;;;;;;3.28;2.72;;;25.40;33.60;;;;;;5008858;28;20164;-84
2022/04/21 10:49:59;;;;;;;4.05;2.50;;;25.90;32.20;;;;;;4992355;28;20045;-85
2022/04/21 10:57:51;;;;;;;3.25;2.03;;;26.40;30.40;;;;;;5008456;28;20056;-84
2022/04/21 11:00:31;;;;;;;4.05;2.20;;;26.50;29.70;;;;;;5009141;28;20061;-84
2022/04/21 11:03:11;;;;;;;6.90;2.53;;;26.70;28.40;;;;;;5008530;28;20054;-85
2022/04/21 11:05:39;;;;;;;3.15;2.10;;;26.50;28.20;;;;;;4992111;28;20052;-85
2022/04/21 11:08:14;;;;;;;3.25;2.20;;;26.40;28.90;;;;;;4992334;28;20403;-84
2022/04/21 11:10:39;;;;;;;3.58;2.50;;;25.80;29.20;;;;;;4992087;28;20050;-84
2022/04/21 11:13:17;;;;;;;3.08;2.42;;;25.40;30.00;;;;;;5008709;28;20085;-84
2022/04/21 11:15:53;;;;;;;4.45;2.58;;;24.70;30.00;;;;;;5008718;28;20042;-84
2022/04/21 11:18:28;;;;;;;4.88;2.50;;;23.80;31.30;;;;;;4996159;28;20061;-84
2022/04/21 11:21:26;;;;;;;35.92;3.70;;;23.80;32.80;;;;;;5011892;28;20061;-84
2022/04/21 11:23:51;;;;;;;3.10;2.50;;;23.80;30.60;;;;;;4987722;28;20050;-87
2022/04/21 11:26:24;;;;;;;4.45;2.70;;;23.40;31.80;;;;;;4995280;28;20060;-86
2022/04/21 11:28:50;;;;;;;3.70;2.35;;;23.10;32.10;;;;;;5028248;28;20045;-87
2022/04/21 11:31:20;;;;;;;5.38;2.20;;;23.60;32.30;;;;;;4996058;28;20100;-87
2022/04/21 11:33:46;;;;;;;4.05;2.20;;;24.50;30.90;;;;;;5004710;28;20057;-85
2022/04/21 11:36:15;;;;;;;5.03;2.58;;;24.80;30.80;;;;;;5004906;28;20080;-86
2022/04/21 11:38:42;;;;;;;3.45;2.60;;;25.00;30.40;;;;;;4990861;28;20077;-85
2022/04/21 11:41:10;;;;;;;8.48;3.75;;;25.40;30.20;;;;;;4987917;28;20492;-86
2022/04/21 11:43:44;;;;;;;5.50;2.70;;;25.80;29.70;;;;;;4968055;28;20764;-86
2022/04/21 11:46:12;;;;;;;5.78;2.70;;;25.90;29.60;;;;;;4975938;28;20056;-85
2022/04/21 11:48:42;;;;;;;3.33;2.30;;;26.20;30.00;;;;;;4977754;28;20073;-87
2022/04/21 11:51:10;;;;;;;4.10;2.50;;;26.60;28.90;;;;;;4977834;28;20535;-86
2022/04/21 11:53:40;;;;;;;5.07;2.42;;;27.00;28.70;;;;;;5010631;28;20046;-85
2022/04/21 11:56:10;;;;;;;2.88;2.47;;;27.30;28.30;;;;;;4990937;28;20049;-86
2022/04/21 11:58:41;;;;;;;3.92;2.30;;;27.30;28.30;;;;;;4993664;28;20064;-87
2022/04/21 12:06:55;;;;;;;3.70;2.30;;;24.80;30.10;;;;;;4995032;28;20053;-86
2022/04/21 12:09:33;;;;;;;2.83;2.40;;;24.80;30.50;;;;;;5003603;28;20081;-87
2022/04/21 12:12:00;;;;;;;6.85;2.50;;;25.70;30.20;;;;;;4978166;28;20108;-86
2022/04/21 12:14:27;;;;;;;4.53;2.58;;;26.20;29.40;;;;;;5009123;28;20471;-86
2022/04/21 12:17:00;;;;;;;3.92;2.00;;;26.20;28.50;;;;;;4991993;28;20046;-87
2022/04/21 12:19:28;;;;;;;4.63;2.50;;;25.90;27.60;;;;;;5002643;28;20121;-87
2022/04/21 12:21:59;;;;;;;4.72;2.92;;;25.80;28.60;;;;;;4983485;28;20046;-85
2022/04/21 12:24:33;;;;;;;6.65;2.78;;;25.80;28.00;;;;;;4989020;28;20107;-85
2022/04/21 12:27:01;;;;;;;4.13;2.80;;;25.40;28.60;;;;;;5002171;28;20038;-85
2022/04/21 12:29:29;;;;;;;4.15;2.65;;;25.30;29.30;;;;;;4977425;28;20060;-86
2022/04/21 12:32:05;;;;;;;4.13;2.50;;;25.90;28.70;;;;;;4968730;28;20105;-87
2022/04/21 12:34:38;;;;;;;4.28;2.30;;;26.40;27.90;;;;;;5002826;28;20555;-86
2022/04/21 12:37:05;;;;;;;2.55;2.35;;;26.70;27.40;;;;;;4977469;28;20081;-85
2022/04/21 12:39:32;;;;;;;4.75;2.95;;;26.90;27.20;;;;;;4986472;28;20392;-85
2022/04/21 12:41:59;;;;;;;10.10;2.72;;;26.80;26.90;;;;;;5003824;28;20483;-85
2022/04/21 12:44:25;;;;;;;5.18;3.00;;;26.60;27.70;;;;;;4990164;28;20053;-87
2022/04/21 12:46:59;;;;;;;4.95;2.53;;;26.90;27.90;;;;;;5008164;28;20045;-86
2022/04/21 12:49:58;;;;;;;3.97;2.90;;;27.10;27.00;;;;;;4981268;28;20050;-85
2022/04/21 12:52:29;;;;;;;7.57;3.47;;;27.20;26.80;;;;;;4987973;28;20133;-86
2022/04/21 12:54:54;;;;;;;4.82;3.00;;;26.80;27.00;;;;;;4978299;28;20074;-86
2022/04/21 12:57:20;;;;;;;4.05;3.40;;;26.10;27.90;;;;;;4962949;28;20057;-86
2022/04/21 12:59:46;;;;;;;4.95;3.30;;;25.30;28.80;;;;;;4987512;28;20527;-86
2022/04/21 13:02:13;;;;;;;5.20;3.47;;;24.80;29.70;;;;;;4976521;28;20053;-86
2022/04/21 13:04:41;;;;;;;6.07;3.33;;;25.00;30.10;;;;;;5000758;28;20060;-86
2022/04/21 13:07:09;;;;;;;4.72;3.25;;;25.00;29.40;;;;;;5009553;28;20038;-85
2022/04/21 13:09:35;;;;;;;4.15;3.25;;;25.10;29.20;;;;;;4979140;28;20053;-86
2022/04/21 13:12:01;;;;;;;6.20;3.13;;;25.20;29.60;;;;;;4984151;28;20033;-85
2022/04/21 13:14:26;;;;;;;3.95;3.53;;;25.70;29.80;;;;;;4991200;28;20622;-85
2022/04/21 13:16:52;;;;;;;3.83;3.20;;;25.90;29.00;;;;;;4987127;28;20041;-86
2022/04/21 13:19:18;;;;;;;9.75;3.45;;;25.80;28.90;;;;;;4993573;28;20042;-86
2022/04/21 13:21:52;;;;;;;4.63;3.42;;;26.00;28.90;;;;;;4991929;28;20056;-87
2022/04/21 13:24:19;;;;;;;7.18;3.00;;;25.70;28.50;;;;;;4974838;28;20403;-86
2022/04/21 13:26:45;;;;;;;7.55;3.47;;;26.30;28.80;;;;;;4988524;28;20053;-86
2022/04/21 13:29:11;;;;;;;5.03;3.80;;;26.50;28.50;;;;;;4981649;28;20046;-85
2022/04/21 13:34:20;;;;;;;5.88;4.00;;;26.70;28.00;;;;;;5002382;28;20057;-85
2022/04/21 13:36:46;;;;;;;4.50;3.45;;;26.70;28.70;;;;;;4958217;28;20049;-86
2022/04/21 13:39:12;;;;;;;6.38;3.92;;;27.10;28.40;;;;;;4989536;28;20054;-86
2022/04/21 13:41:38;;;;;;;7.95;3.83;;;27.60;28.00;;;;;;4990104;28;20570;-87
2022/04/21 13:44:04;;;;;;;6.55;4.18;;;27.90;27.40;;;;;;4957795;28;20627;-87
2022/04/21 13:46:29;;;;;;;5.15;3.95;;;27.90;27.20;;;;;;4974151;28;20096;-86
2022/04/21 13:48:59;;;;;;;5.80;4.30;;;27.90;26.70;;;;;;4991057;28;20089;-86